createdAt,value
2022-10-03T06:15:02.995Z,1016.67
2022-10-03T06:25:02.891Z,1016.93
2022-10-03T06:35:02.853Z,1017.09
2022-10-03T06:45:03.164Z,1017.08
2022-10-03T06:55:02.933Z,1017.08
2022-10-03T07:05:02.908Z,1017.19
2022-10-03T07:15:02.848Z,1017.31
2022-10-03T07:25:02.929Z,1017.30
2022-10-03T07:35:02.856Z,1017.57
2022-10-03T07:45:02.997Z,1017.69
2022-10-03T07:55:02.888Z,1017.76
2022-10-03T08:05:02.898Z,1017.78
2022-10-03T08:15:03.089Z,1017.82
2022-10-03T08:25:03.325Z,1017.87
2022-10-03T08:35:03.048Z,1017.90
2022-10-03T08:45:03.052Z,1017.91
2022-10-03T08:55:03.423Z,1017.89
2022-10-03T09:05:03.168Z,1017.95
2022-10-03T09:15:03.159Z,1018.05
2022-10-03T09:25:03.066Z,1018.04
2022-10-03T09:35:07.077Z,1017.93
2022-10-03T09:45:03.140Z,1017.89
2022-10-03T09:55:03.203Z,1018.02
2022-10-03T10:05:03.386Z,1018.29
2022-10-03T10:15:03.190Z,1018.32
2022-10-03T10:25:03.102Z,1018.19
2022-10-03T10:35:03.248Z,1018.14
2022-10-03T10:45:03.145Z,1018.05
2022-10-03T10:55:03.269Z,1018.05
2022-10-03T11:05:03.298Z,1017.99
2022-10-03T11:15:03.356Z,1017.63
2022-10-03T11:25:03.296Z,1017.62
2022-10-03T11:35:03.354Z,1017.53
2022-10-03T11:45:03.288Z,1017.76
2022-10-03T11:55:03.289Z,1017.82
2022-10-03T12:05:03.289Z,1017.84
2022-10-03T12:15:03.279Z,1017.78
2022-10-03T12:25:03.359Z,1017.65
2022-10-03T12:35:03.314Z,1017.44
2022-10-03T12:45:03.310Z,1017.45
2022-10-03T12:55:03.323Z,1017.48
2022-10-03T13:05:03.413Z,1017.53
2022-10-03T13:15:03.300Z,1017.52
2022-10-03T13:25:03.350Z,1017.48
2022-10-03T13:35:03.309Z,1017.45
2022-10-03T13:45:03.433Z,1017.18
2022-10-03T13:55:03.348Z,1017.29
2022-10-03T14:05:03.335Z,1017.28
2022-10-03T14:15:03.391Z,1017.21
2022-10-03T14:25:03.485Z,1017.18
2022-10-03T14:35:03.523Z,1017.16
2022-10-03T14:45:03.535Z,1017.23
2022-10-03T14:55:03.436Z,1017.26
2022-10-03T15:05:03.369Z,1017.24
2022-10-03T15:15:03.449Z,1017.24
2022-10-03T15:25:03.319Z,1017.14
2022-10-03T15:35:03.355Z,1017.19
2022-10-03T15:45:03.430Z,1017.27
2022-10-03T15:55:11.599Z,1017.10
2022-10-03T16:05:03.532Z,1017.05
2022-10-03T16:15:03.425Z,1016.95
2022-10-03T16:25:03.391Z,1016.98
2022-10-03T16:35:03.426Z,1017.01
2022-10-03T16:45:03.577Z,1017.01
2022-10-03T16:55:03.378Z,1017.05
2022-10-03T17:05:03.445Z,1017.01
2022-10-03T17:15:03.519Z,1017.08
2022-10-03T17:25:03.477Z,1017.12
2022-10-03T17:35:03.437Z,1017.01
2022-10-03T17:45:03.498Z,1017.00
2022-10-03T17:55:03.591Z,1017.12
2022-10-03T18:05:03.642Z,1017.21
2022-10-03T18:15:03.699Z,1017.26
2022-10-03T18:25:03.573Z,1017.17
2022-10-03T18:35:03.633Z,1017.23
2022-10-03T18:45:03.581Z,1017.26
2022-10-03T18:55:03.597Z,1017.29
2022-10-03T19:05:03.682Z,1017.19
2022-10-03T19:15:03.835Z,1017.13
